sensor_id;sensor_type;location;lat;lon;timestamp;pressure;altitude;pressure_sealevel;temperature;humidity
55592;BME280;41454;53.396;-1.510;2022-11-20T00:01:28;99570.68;;;2.54;100.00
55592;BME280;41454;53.396;-1.510;2022-11-20T00:03:57;99559.36;;;1.70;100.00
55592;BME280;41454;53.396;-1.510;2022-11-20T00:06:24;99557.32;;;2.63;100.00
55592;BME280;41454;53.396;-1.510;2022-11-20T00:08:54;99551.48;;;2.14;100.00
55592;BME280;41454;53.396;-1.510;2022-11-20T00:11:23;99550.70;;;2.41;100.00
55592;BME280;41454;53.396;-1.510;2022-11-20T00:13:52;99547.41;;;2.29;100.00
55592;BME280;41454;53.396;-1.510;2022-11-20T00:16:21;99542.78;;;2.96;100.00
55592;BME280;41454;53.396;-1.510;2022-11-20T00:18:55;99536.26;;;2.15;100.00
55592;BME280;41454;53.396;-1.510;2022-11-20T00:22:29;99538.69;;;2.25;100.00
55592;BME280;41454;53.396;-1.510;2022-11-20T00:24:56;99537.51;;;2.31;100.00
55592;BME280;41454;53.396;-1.510;2022-11-20T00:27:23;99535.85;;;2.32;100.00
55592;BME280;41454;53.396;-1.510;2022-11-20T00:29:50;99532.99;;;2.38;100.00
55592;BME280;41454;53.396;-1.510;2022-11-20T00:32:18;99525.14;;;2.54;100.00
55592;BME280;41454;53.396;-1.510;2022-11-20T00:34:45;99518.97;;;2.18;100.00
55592;BME280;41454;53.396;-1.510;2022-11-20T00:37:12;99517.30;;;2.51;100.00
55592;BME280;41454;53.396;-1.510;2022-11-20T00:39:39;99511.12;;;2.36;100.00
55592;BME280;41454;53.396;-1.510;2022-11-20T00:42:06;99501.77;;;2.27;100.00
55592;BME280;41454;53.396;-1.510;2022-11-20T00:44:33;99500.95;;;2.76;100.00
55592;BME280;41454;53.396;-1.510;2022-11-20T00:47:00;99499.32;;;2.27;100.00
55592;BME280;41454;53.396;-1.510;2022-11-20T00:49:28;99494.58;;;2.57;100.00
55592;BME280;41454;53.396;-1.510;2022-11-20T00:51:54;99498.15;;;2.38;100.00
55592;BME280;41454;53.396;-1.510;2022-11-20T00:54:22;99490.29;;;2.28;100.00
55592;BME280;41454;53.396;-1.510;2022-11-20T00:56:52;99482.82;;;1.76;100.00
55592;BME280;41454;53.396;-1.510;2022-11-20T00:59:19;99486.33;;;2.26;100.00
55592;BME280;41454;53.396;-1.510;2022-11-20T01:01:47;99480.42;;;2.51;100.00
55592;BME280;41454;53.396;-1.510;2022-11-20T01:04:14;99472.95;;;2.02;100.00
55592;BME280;41454;53.396;-1.510;2022-11-20T01:06:42;99474.99;;;2.29;100.00
55592;BME280;41454;53.396;-1.510;2022-11-20T01:09:11;99465.81;;;2.22;100.00
55592;BME280;41454;53.396;-1.510;2022-11-20T01:11:41;99461.40;;;1.96;100.00
55592;BME280;41454;53.396;-1.510;2022-11-20T01:14:11;99455.47;;;2.05;100.00
55592;BME280;41454;53.396;-1.510;2022-11-20T01:16:41;99456.54;;;2.83;100.00
55592;BME280;41454;53.396;-1.510;2022-11-20T01:19:11;99449.62;;;1.77;100.00
55592;BME280;41454;53.396;-1.510;2022-11-20T01:21:40;99448.11;;;2.15;100.00
55592;BME280;41454;53.396;-1.510;2022-11-20T01:24:10;99447.03;;;2.23;100.00
55592;BME280;41454;53.396;-1.510;2022-11-20T01:26:39;99441.92;;;2.29;100.00
55592;BME280;41454;53.396;-1.510;2022-11-20T01:29:08;99439.09;;;2.20;100.00
55592;BME280;41454;53.396;-1.510;2022-11-20T01:31:39;99435.96;;;2.04;100.00
55592;BME280;41454;53.396;-1.510;2022-11-20T01:34:09;99429.50;;;2.13;100.00
55592;BME280;41454;53.396;-1.510;2022-11-20T01:36:38;99425.56;;;2.85;100.00
55592;BME280;41454;53.396;-1.510;2022-11-20T01:39:10;99414.35;;;2.98;100.00
55592;BME280;41454;53.396;-1.510;2022-11-20T01:41:38;99409.55;;;3.58;100.00
55592;BME280;41454;53.396;-1.510;2022-11-20T01:44:05;99407.40;;;2.60;100.00
55592;BME280;41454;53.396;-1.510;2022-11-20T01:47:31;99402.55;;;3.62;100.00
55592;BME280;41454;53.396;-1.510;2022-11-20T02:01:39;99381.00;;;2.52;100.00
55592;BME280;41454;53.396;-1.510;2022-11-20T02:04:08;99375.80;;;3.78;100.00
55592;BME280;41454;53.396;-1.510;2022-11-20T02:06:40;99373.12;;;2.66;100.00
55592;BME280;41454;53.396;-1.510;2022-11-20T02:09:08;99370.97;;;2.58;100.00
55592;BME280;41454;53.396;-1.510;2022-11-20T02:11:36;99363.67;;;2.79;100.00
55592;BME280;41454;53.396;-1.510;2022-11-20T02:14:04;99366.48;;;2.07;100.00
55592;BME280;41454;53.396;-1.510;2022-11-20T02:16:35;99369.24;;;2.41;100.00
55592;BME280;41454;53.396;-1.510;2022-11-20T02:19:16;99367.35;;;1.89;100.00
55592;BME280;41454;53.396;-1.510;2022-11-20T02:21:51;99361.18;;;2.11;100.00
55592;BME280;41454;53.396;-1.510;2022-11-20T02:24:23;99352.19;;;2.01;100.00
55592;BME280;41454;53.396;-1.510;2022-11-20T02:26:53;99350.30;;;2.22;100.00
55592;BME280;41454;53.396;-1.510;2022-11-20T02:29:24;99341.37;;;2.54;100.00
55592;BME280;41454;53.396;-1.510;2022-11-20T02:31:54;99330.57;;;2.31;100.00
55592;BME280;41454;53.396;-1.510;2022-11-20T02:34:22;99327.71;;;2.15;100.00
55592;BME280;41454;53.396;-1.510;2022-11-20T02:36:51;99323.92;;;3.38;100.00
55592;BME280;41454;53.396;-1.510;2022-11-20T02:39:19;99316.74;;;3.19;100.00
55592;BME280;41454;53.396;-1.510;2022-11-20T02:41:47;99312.81;;;2.99;100.00
55592;BME280;41454;53.396;-1.510;2022-11-20T03:01:45;99280.09;;;2.42;100.00
55592;BME280;41454;53.396;-1.510;2022-11-20T03:04:12;99274.60;;;2.34;100.00
55592;BME280;41454;53.396;-1.510;2022-11-20T03:28:37;99233.15;;;3.03;100.00
55592;BME280;41454;53.396;-1.510;2022-11-20T03:34:02;99219.41;;;2.50;100.00
55592;BME280;41454;53.396;-1.510;2022-11-20T03:36:30;99217.65;;;2.49;100.00
55592;BME280;41454;53.396;-1.510;2022-11-20T03:38:57;99207.34;;;2.33;100.00
55592;BME280;41454;53.396;-1.510;2022-11-20T03:41:35;99197.45;;;1.98;100.00
55592;BME280;41454;53.396;-1.510;2022-11-20T03:44:05;99194.26;;;1.63;100.00
55592;BME280;41454;53.396;-1.510;2022-11-20T03:46:35;99187.72;;;2.35;100.00
55592;BME280;41454;53.396;-1.510;2022-11-20T03:53:54;99176.07;;;2.63;100.00
55592;BME280;41454;53.396;-1.510;2022-11-20T03:56:24;99164.75;;;2.84;100.00
55592;BME280;41454;53.396;-1.510;2022-11-20T03:58:51;99152.92;;;2.76;100.00
55592;BME280;41454;53.396;-1.510;2022-11-20T04:01:21;99153.85;;;2.42;100.00
55592;BME280;41454;53.396;-1.510;2022-11-20T04:03:51;99150.75;;;3.33;100.00
55592;BME280;41454;53.396;-1.510;2022-11-20T04:06:30;99146.49;;;3.12;100.00
55592;BME280;41454;53.396;-1.510;2022-11-20T04:09:00;99145.29;;;3.08;100.00
55592;BME280;41454;53.396;-1.510;2022-11-20T04:11:29;99141.39;;;2.92;100.00
55592;BME280;41454;53.396;-1.510;2022-11-20T04:13:59;99140.66;;;2.86;100.00
55592;BME280;41454;53.396;-1.510;2022-11-20T04:16:34;99130.55;;;3.40;100.00
55592;BME280;41454;53.396;-1.510;2022-11-20T04:21:25;99131.45;;;1.82;100.00
55592;BME280;41454;53.396;-1.510;2022-11-20T04:23:52;99131.45;;;1.32;100.00
55592;BME280;41454;53.396;-1.510;2022-11-20T04:26:22;99130.61;;;1.46;100.00
55592;BME280;41454;53.396;-1.510;2022-11-20T04:28:49;99128.32;;;1.53;100.00
55592;BME280;41454;53.396;-1.510;2022-11-20T04:31:18;99120.51;;;1.87;100.00
55592;BME280;41454;53.396;-1.510;2022-11-20T04:33:45;99113.37;;;2.29;100.00
55592;BME280;41454;53.396;-1.510;2022-11-20T04:36:14;99113.71;;;1.85;100.00
55592;BME280;41454;53.396;-1.510;2022-11-20T04:38:42;99109.10;;;2.09;100.00
55592;BME280;41454;53.396;-1.510;2022-11-20T04:41:13;99106.64;;;1.69;100.00
55592;BME280;41454;53.396;-1.510;2022-11-20T04:43:41;99107.38;;;2.45;100.00
55592;BME280;41454;53.396;-1.510;2022-11-20T04:46:08;99110.86;;;1.38;100.00
55592;BME280;41454;53.396;-1.510;2022-11-20T04:48:35;99111.74;;;1.58;100.00
55592;BME280;41454;53.396;-1.510;2022-11-20T04:51:03;99110.71;;;1.86;100.00
55592;BME280;41454;53.396;-1.510;2022-11-20T04:53:30;99113.90;;;2.18;100.00
55592;BME280;41454;53.396;-1.510;2022-11-20T04:56:00;99108.36;;;2.10;100.00
55592;BME280;41454;53.396;-1.510;2022-11-20T04:58:27;99097.71;;;2.06;100.00
55592;BME280;41454;53.396;-1.510;2022-11-20T05:01:01;99096.40;;;1.97;100.00
55592;BME280;41454;53.396;-1.510;2022-11-20T05:03:29;99100.55;;;2.11;100.00
55592;BME280;41454;53.396;-1.510;2022-11-20T05:05:56;99108.53;;;2.26;100.00
55592;BME280;41454;53.396;-1.510;2022-11-20T05:08:26;99107.98;;;2.96;100.00
55592;BME280;41454;53.396;-1.510;2022-11-20T05:11:00;99109.43;;;2.09;100.00
55592;BME280;41454;53.396;-1.510;2022-11-20T05:13:28;99107.01;;;2.04;100.00
55592;BME280;41454;53.396;-1.510;2022-11-20T05:16:02;99105.30;;;2.45;100.00
55592;BME280;41454;53.396;-1.510;2022-11-20T05:18:29;99106.58;;;2.59;100.00
55592;BME280;41454;53.396;-1.510;2022-11-20T05:20:57;99105.16;;;2.16;100.00
55592;BME280;41454;53.396;-1.510;2022-11-20T05:23:25;99112.25;;;2.84;100.00
55592;BME280;41454;53.396;-1.510;2022-11-20T05:25:53;99101.86;;;2.73;100.00
55592;BME280;41454;53.396;-1.510;2022-11-20T05:53:19;99064.34;;;4.00;100.00
55592;BME280;41454;53.396;-1.510;2022-11-20T05:55:47;99056.41;;;4.00;100.00
55592;BME280;41454;53.396;-1.510;2022-11-20T05:58:22;99060.01;;;3.98;100.00
55592;BME280;41454;53.396;-1.510;2022-11-20T06:00:49;99054.93;;;4.19;100.00
55592;BME280;41454;53.396;-1.510;2022-11-20T06:03:16;99051.11;;;4.37;100.00
55592;BME280;41454;53.396;-1.510;2022-11-20T06:05:44;99044.83;;;2.69;100.00
55592;BME280;41454;53.396;-1.510;2022-11-20T06:08:11;99041.71;;;2.99;100.00
55592;BME280;41454;53.396;-1.510;2022-11-20T06:10:38;99034.67;;;2.27;100.00
55592;BME280;41454;53.396;-1.510;2022-11-20T06:13:05;99039.37;;;3.74;100.00
55592;BME280;41454;53.396;-1.510;2022-11-20T06:15:32;99031.75;;;4.29;100.00
55592;BME280;41454;53.396;-1.510;2022-11-20T08:35:48;99098.50;;;4.62;100.00
55592;BME280;41454;53.396;-1.510;2022-11-20T08:38:16;99096.71;;;4.75;100.00
55592;BME280;41454;53.396;-1.510;2022-11-20T08:40:43;99098.49;;;4.09;100.00
55592;BME280;41454;53.396;-1.510;2022-11-20T08:43:11;99095.39;;;4.96;100.00
55592;BME280;41454;53.396;-1.510;2022-11-20T08:45:38;99101.15;;;5.01;100.00
55592;BME280;41454;53.396;-1.510;2022-11-20T08:48:05;99109.01;;;4.61;100.00
55592;BME280;41454;53.396;-1.510;2022-11-20T08:50:33;99111.37;;;4.47;100.00
55592;BME280;41454;53.396;-1.510;2022-11-20T08:53:03;99113.79;;;4.52;100.00
55592;BME280;41454;53.396;-1.510;2022-11-20T08:55:29;99116.12;;;5.14;100.00
55592;BME280;41454;53.396;-1.510;2022-11-20T08:57:57;99117.01;;;5.33;100.00
55592;BME280;41454;53.396;-1.510;2022-11-20T09:00:27;99122.74;;;5.08;100.00
55592;BME280;41454;53.396;-1.510;2022-11-20T09:02:53;99120.42;;;5.42;100.00
55592;BME280;41454;53.396;-1.510;2022-11-20T09:05:21;99112.23;;;5.89;100.00
55592;BME280;41454;53.396;-1.510;2022-11-20T09:07:48;99107.40;;;5.42;100.00
55592;BME280;41454;53.396;-1.510;2022-11-20T09:10:15;99104.78;;;5.47;100.00
55592;BME280;41454;53.396;-1.510;2022-11-20T09:12:43;99106.80;;;5.56;100.00
55592;BME280;41454;53.396;-1.510;2022-11-20T09:15:10;99107.03;;;5.48;100.00
55592;BME280;41454;53.396;-1.510;2022-11-20T09:17:37;99117.41;;;5.04;100.00
55592;BME280;41454;53.396;-1.510;2022-11-20T09:20:05;99121.90;;;4.89;100.00
55592;BME280;41454;53.396;-1.510;2022-11-20T09:22:33;99118.25;;;4.94;100.00
55592;BME280;41454;53.396;-1.510;2022-11-20T09:25:00;99125.43;;;5.05;100.00
55592;BME280;41454;53.396;-1.510;2022-11-20T09:27:26;99123.74;;;4.55;100.00
55592;BME280;41454;53.396;-1.510;2022-11-20T09:29:53;99126.42;;;4.88;100.00
55592;BME280;41454;53.396;-1.510;2022-11-20T09:32:20;99125.67;;;4.79;100.00
55592;BME280;41454;53.396;-1.510;2022-11-20T09:34:47;99119.36;;;4.74;100.00
55592;BME280;41454;53.396;-1.510;2022-11-20T09:37:14;99122.43;;;4.48;100.00
55592;BME280;41454;53.396;-1.510;2022-11-20T09:39:41;99138.15;;;4.70;100.00
55592;BME280;41454;53.396;-1.510;2022-11-20T09:42:22;99137.14;;;4.83;100.00
